Time;durP1;ratioP1;P1;durP2;ratioP2;P2;SDS_P1;SDS_P2;PMS_P1;PMS_P2;Temp;Humidity;BMP_temperature;BMP_pressure;BME280_temperature;BME280_humidity;BME280_pressure;Samples;Min_cycle;Max_cycle;Signal;HPM_P1;HPM_P2
2021/03/14 00:00:59;;;;;;;24.40;12.20;;;5.70;90.90;;;;;;1789556;80;21109;-71
2021/03/14 00:03:30;;;;;;;23.20;12.25;;;5.70;91.30;;;;;;1789653;80;21583;-72
2021/03/14 00:05:59;;;;;;;23.73;12.82;;;5.60;91.80;;;;;;1789546;80;21120;-72
2021/03/14 00:08:30;;;;;;;19.95;11.40;;;5.60;91.60;;;;;;1789723;80;21148;-72
2021/03/14 00:11:05;;;;;;;24.12;11.65;;;5.60;91.80;;;;;;1789626;80;21544;-73
2021/03/14 00:13:36;;;;;;;26.10;13.40;;;5.60;91.40;;;;;;1789567;80;21085;-72
2021/03/14 00:16:07;;;;;;;24.05;12.33;;;5.60;92.00;;;;;;1789540;80;21196;-73
2021/03/14 00:18:41;;;;;;;28.83;14.05;;;5.60;92.00;;;;;;1789725;80;21140;-73
2021/03/14 00:21:11;;;;;;;24.30;12.75;;;5.60;90.90;;;;;;1789559;80;21120;-73
2021/03/14 00:23:39;;;;;;;25.35;12.90;;;5.40;91.70;;;;;;1789698;80;21152;-71
2021/03/14 00:26:07;;;;;;;26.10;13.30;;;5.40;91.60;;;;;;1789813;80;21137;-72
2021/03/14 00:28:35;;;;;;;24.23;12.47;;;5.40;91.90;;;;;;1789762;80;21551;-72
2021/03/14 00:31:03;;;;;;;24.20;13.55;;;5.30;91.50;;;;;;1789612;80;21152;-72
2021/03/14 00:33:31;;;;;;;24.32;13.03;;;5.40;91.50;;;;;;1789736;80;21128;-72
2021/03/14 00:35:59;;;;;;;28.12;13.95;;;5.30;92.30;;;;;;1789472;80;21148;-72
2021/03/14 00:38:27;;;;;;;25.68;13.30;;;5.30;93.00;;;;;;1789720;80;21140;-72
2021/03/14 00:40:54;;;;;;;25.48;13.35;;;5.30;92.00;;;;;;1789487;80;21148;-72
2021/03/14 00:43:22;;;;;;;26.25;12.90;;;5.30;92.40;;;;;;1789587;80;21167;-71
2021/03/14 00:45:50;;;;;;;22.80;11.68;;;5.20;92.20;;;;;;1789698;80;21160;-71
2021/03/14 00:48:19;;;;;;;21.37;10.28;;;5.00;93.00;;;;;;1756666;80;21109;-71
2021/03/14 00:50:47;;;;;;;21.85;11.40;;;5.10;92.90;;;;;;1789491;80;21132;-72
2021/03/14 00:53:17;;;;;;;22.00;11.15;;;5.10;92.80;;;;;;1788144;80;21128;-72
2021/03/14 00:55:47;;;;;;;21.15;11.38;;;5.10;93.40;;;;;;1789684;80;21152;-72
2021/03/14 00:58:15;;;;;;;24.45;12.58;;;5.30;93.30;;;;;;1789514;80;21298;-72
2021/03/14 01:00:44;;;;;;;22.13;11.43;;;5.20;93.20;;;;;;1774613;79;21156;-72
2021/03/14 01:03:12;;;;;;;19.60;10.95;;;5.20;93.20;;;;;;1804046;79;21124;-73
2021/03/14 01:05:41;;;;;;;21.52;11.78;;;5.30;92.80;;;;;;1804134;79;21544;-73
2021/03/14 01:08:10;;;;;;;24.35;12.05;;;5.30;93.40;;;;;;1804075;79;21139;-73
2021/03/14 01:10:39;;;;;;;24.43;12.03;;;5.40;92.40;;;;;;1804224;79;21155;-72
2021/03/14 01:13:08;;;;;;;21.82;13.00;;;5.40;92.50;;;;;;1804224;79;21131;-73
2021/03/14 01:15:37;;;;;;;24.43;12.85;;;5.40;92.70;;;;;;1804200;79;21140;-73
2021/03/14 01:18:06;;;;;;;21.90;11.33;;;5.50;91.60;;;;;;1804058;79;21147;-72
2021/03/14 01:20:34;;;;;;;22.10;11.10;;;5.50;91.20;;;;;;1804228;79;21131;-73
2021/03/14 01:23:02;;;;;;;19.52;10.85;;;5.40;90.20;;;;;;1804109;79;21158;-73
2021/03/14 01:25:30;;;;;;;18.62;11.00;;;5.40;89.90;;;;;;1804031;79;21131;-73
2021/03/14 01:27:57;;;;;;;19.65;10.75;;;5.40;90.10;;;;;;1804219;79;21140;-73
2021/03/14 01:30:25;;;;;;;17.75;9.85;;;5.40;90.00;;;;;;1804227;79;21723;-73
2021/03/14 01:32:53;;;;;;;21.55;9.75;;;5.40;90.00;;;;;;1804211;79;21127;-73
2021/03/14 01:35:21;;;;;;;21.02;11.45;;;5.40;89.70;;;;;;1804004;79;21143;-73
2021/03/14 01:37:49;;;;;;;18.67;9.78;;;5.40;89.70;;;;;;1804306;79;21554;-73
2021/03/14 01:40:18;;;;;;;22.02;11.85;;;5.40;90.10;;;;;;1804040;79;21296;-73
2021/03/14 01:42:46;;;;;;;19.60;11.03;;;5.30;90.20;;;;;;1804117;79;21578;-73
2021/03/14 01:45:16;;;;;;;19.67;11.22;;;5.40;90.30;;;;;;1804106;79;21599;-73
2021/03/14 01:47:47;;;;;;;22.85;10.75;;;5.30;90.20;;;;;;1804210;79;21155;-73
2021/03/14 01:50:23;;;;;;;15.32;8.40;;;5.40;90.60;;;;;;1804204;79;21132;-72
2021/03/14 01:52:53;;;;;;;14.98;8.30;;;5.30;89.90;;;;;;1804045;79;21123;-71
2021/03/14 01:55:23;;;;;;;13.83;8.40;;;5.30;89.80;;;;;;1804047;79;21539;-71
2021/03/14 01:57:54;;;;;;;14.20;8.30;;;5.30;89.20;;;;;;1803588;79;21100;-71
2021/03/14 02:00:26;;;;;;;15.48;8.40;;;5.30;89.50;;;;;;1798626;79;21583;-71
2021/03/14 02:02:54;;;;;;;14.43;7.85;;;5.20;89.00;;;;;;1795327;80;21263;-72
2021/03/14 02:05:22;;;;;;;16.60;8.55;;;5.10;89.80;;;;;;1795392;80;21290;-72
2021/03/14 02:07:54;;;;;;;16.65;8.28;;;4.90;90.20;;;;;;1795466;80;21172;-72
2021/03/14 02:10:27;;;;;;;14.50;8.40;;;4.70;91.30;;;;;;1795388;80;21575;-72
2021/03/14 02:13:18;;;;;;;15.20;8.35;;;4.80;91.90;;;;;;1795281;80;21267;-73
2021/03/14 02:15:54;;;;;;;15.70;8.50;;;4.80;92.10;;;;;;1795248;80;21136;-72
2021/03/14 02:18:26;;;;;;;15.08;8.85;;;4.70;92.60;;;;;;1795314;80;21259;-72
2021/03/14 02:20:56;;;;;;;14.00;8.13;;;4.70;93.50;;;;;;1795290;80;21145;-72
2021/03/14 02:23:35;;;;;;;16.60;8.93;;;4.70;92.90;;;;;;1795273;80;21160;-72
2021/03/14 02:26:11;;;;;;;15.70;8.83;;;4.80;92.80;;;;;;1794705;80;21147;-71
2021/03/14 02:28:39;;;;;;;16.57;8.93;;;4.90;92.40;;;;;;1795266;80;21139;-72
2021/03/14 02:31:09;;;;;;;17.82;9.20;;;4.90;92.50;;;;;;1795393;80;21128;-71
2021/03/14 02:33:41;;;;;;;17.40;8.63;;;4.70;93.60;;;;;;1795483;80;21566;-71
2021/03/14 02:36:13;;;;;;;17.17;9.50;;;4.70;93.80;;;;;;1795231;80;21141;-72
2021/03/14 02:38:43;;;;;;;21.15;10.28;;;4.60;94.40;;;;;;1795307;80;21263;-71
2021/03/14 02:41:12;;;;;;;17.30;9.30;;;4.60;95.30;;;;;;1795253;80;21271;-72
2021/03/14 02:43:41;;;;;;;12.88;6.97;;;4.70;94.60;;;;;;1795278;80;21266;-72
2021/03/14 02:46:09;;;;;;;14.58;7.72;;;4.60;94.40;;;;;;1795465;80;21277;-72
2021/03/14 02:48:40;;;;;;;13.93;7.25;;;4.70;94.70;;;;;;1795269;80;21685;-72
2021/03/14 02:51:09;;;;;;;16.30;9.28;;;4.70;95.50;;;;;;1795480;80;21136;-73
2021/03/14 02:53:39;;;;;;;17.02;8.88;;;4.80;94.60;;;;;;1795368;80;21567;-73
2021/03/14 02:56:08;;;;;;;13.22;7.15;;;5.00;93.50;;;;;;1795439;80;21598;-72
2021/03/14 02:58:38;;;;;;;13.48;7.55;;;5.20;92.30;;;;;;1795237;80;21101;-74
2021/03/14 03:01:08;;;;;;;17.00;8.68;;;5.10;92.60;;;;;;1795893;80;21132;-74
2021/03/14 03:03:37;;;;;;;14.23;8.33;;;5.20;92.80;;;;;;1796316;80;21570;-74
2021/03/14 03:06:06;;;;;;;17.10;9.20;;;5.10;93.10;;;;;;1796114;79;21097;-73
2021/03/14 03:08:37;;;;;;;17.67;9.63;;;5.10;94.10;;;;;;1796102;79;21108;-73
2021/03/14 03:11:10;;;;;;;18.52;9.73;;;5.30;93.80;;;;;;1796172;79;21119;-73
2021/03/14 03:13:39;;;;;;;17.42;9.55;;;5.20;93.70;;;;;;1796242;79;21132;-74
2021/03/14 03:16:16;;;;;;;17.62;9.73;;;5.30;93.20;;;;;;1796333;80;21167;-74
2021/03/14 03:18:46;;;;;;;16.95;9.85;;;5.50;92.90;;;;;;1796304;79;21094;-73
2021/03/14 03:21:14;;;;;;;20.65;9.90;;;5.50;92.90;;;;;;1796381;79;21123;-74
2021/03/14 03:23:43;;;;;;;18.02;9.93;;;5.50;92.50;;;;;;1796354;79;21594;-73
2021/03/14 03:26:11;;;;;;;17.77;10.75;;;5.40;93.20;;;;;;1796251;79;21093;-73
2021/03/14 03:28:38;;;;;;;19.23;10.18;;;5.30;94.10;;;;;;1796435;80;21132;-74
2021/03/14 03:31:07;;;;;;;19.57;10.72;;;5.40;94.10;;;;;;1796544;79;21128;-73
2021/03/14 03:33:36;;;;;;;20.35;10.75;;;5.30;94.70;;;;;;1796376;79;21124;-74
2021/03/14 03:36:04;;;;;;;20.80;10.98;;;5.40;94.10;;;;;;1796256;79;21116;-73
2021/03/14 03:38:34;;;;;;;22.32;11.05;;;5.30;94.20;;;;;;1796328;79;21168;-73
2021/03/14 03:41:03;;;;;;;21.82;11.33;;;5.40;94.20;;;;;;1796376;79;21116;-73
2021/03/14 03:43:38;;;;;;;21.17;11.78;;;5.40;93.90;;;;;;1796427;80;21127;-73
2021/03/14 03:46:10;;;;;;;20.88;11.03;;;5.40;94.10;;;;;;1796454;80;21270;-73
2021/03/14 03:48:48;;;;;;;20.35;11.33;;;5.50;93.60;;;;;;1796266;79;21550;-73
2021/03/14 03:51:29;;;;;;;22.35;11.50;;;5.40;94.00;;;;;;1796340;80;21563;-73
2021/03/14 03:53:59;;;;;;;21.60;11.93;;;5.40;93.00;;;;;;1796256;80;21116;-73
2021/03/14 03:56:29;;;;;;;21.77;11.63;;;5.40;90.50;;;;;;1796396;80;21681;-73
2021/03/14 03:59:00;;;;;;;20.82;11.55;;;5.30;91.00;;;;;;1796336;80;21558;-73
2021/03/14 04:01:29;;;;;;;22.50;11.80;;;5.30;92.00;;;;;;1790703;79;21189;-73
2021/03/14 04:03:58;;;;;;;24.80;12.47;;;5.30;90.90;;;;;;1789529;80;21140;-73
2021/03/14 04:06:27;;;;;;;26.50;12.70;;;5.40;90.20;;;;;;1789601;80;21147;-73
2021/03/14 04:08:55;;;;;;;23.32;12.03;;;5.30;90.30;;;;;;1789811;80;21128;-72
2021/03/14 04:11:23;;;;;;;23.73;12.37;;;5.20;91.00;;;;;;1789538;80;21149;-72
2021/03/14 04:13:54;;;;;;;28.40;13.05;;;5.20;90.40;;;;;;1789642;80;21131;-72
2021/03/14 04:16:24;;;;;;;29.45;13.43;;;5.10;89.10;;;;;;1789549;80;21141;-72
2021/03/14 04:18:53;;;;;;;21.95;12.13;;;5.00;88.30;;;;;;1789671;80;21120;-72
2021/03/14 04:21:23;;;;;;;22.58;12.05;;;4.90;88.90;;;;;;1789760;80;21148;-72
2021/03/14 04:23:54;;;;;;;22.55;12.43;;;4.90;90.50;;;;;;1789509;80;21132;-73
2021/03/14 04:26:23;;;;;;;23.40;11.70;;;4.90;91.20;;;;;;1789538;80;21140;-72
2021/03/14 04:28:55;;;;;;;25.40;12.63;;;4.80;92.30;;;;;;1789552;80;21136;-72
2021/03/14 04:31:24;;;;;;;24.98;12.50;;;4.90;90.90;;;;;;1789919;80;21136;-72
2021/03/14 04:33:54;;;;;;;23.95;12.60;;;4.80;90.20;;;;;;1789821;80;21171;-73
2021/03/14 04:36:24;;;;;;;26.45;12.63;;;4.80;91.20;;;;;;1789614;80;21152;-72
2021/03/14 04:38:52;;;;;;;21.77;11.20;;;4.70;91.80;;;;;;1789520;80;21125;-72
2021/03/14 04:41:22;;;;;;;21.95;11.65;;;4.70;92.30;;;;;;1789703;80;21139;-72
2021/03/14 04:43:50;;;;;;;23.20;11.85;;;4.80;91.50;;;;;;1789527;80;21143;-72
2021/03/14 04:46:19;;;;;;;23.00;12.68;;;4.70;92.00;;;;;;1789527;80;21159;-72
2021/03/14 04:48:47;;;;;;;20.02;10.70;;;4.60;92.90;;;;;;1789534;80;21721;-72
2021/03/14 04:51:17;;;;;;;18.75;10.38;;;4.50;93.50;;;;;;1785866;80;21136;-72
2021/03/14 04:53:45;;;;;;;19.73;10.75;;;4.50;94.30;;;;;;1789484;80;21583;-72
2021/03/14 04:56:14;;;;;;;21.17;11.30;;;4.70;94.60;;;;;;1789486;80;21145;-72
2021/03/14 04:58:42;;;;;;;18.67;10.65;;;4.70;94.30;;;;;;1789893;80;21555;-71
2021/03/14 05:01:13;;;;;;;21.50;10.72;;;4.80;94.30;;;;;;1793494;80;21160;-72
2021/03/14 05:03:45;;;;;;;18.57;10.68;;;4.90;94.20;;;;;;1796369;80;21093;-72
2021/03/14 05:06:21;;;;;;;20.10;9.88;;;5.00;93.90;;;;;;1796287;80;21128;-71
2021/03/14 05:08:50;;;;;;;15.38;8.50;;;5.20;92.90;;;;;;1796406;80;21115;-72
2021/03/14 05:11:21;;;;;;;18.37;8.70;;;5.20;92.80;;;;;;1796154;80;21143;-72
2021/03/14 05:13:50;;;;;;;17.00;9.18;;;5.30;92.20;;;;;;1796194;80;21105;-71
2021/03/14 05:16:18;;;;;;;17.35;9.15;;;5.30;91.50;;;;;;1796216;79;21143;-71
2021/03/14 05:18:47;;;;;;;20.23;10.63;;;5.40;92.10;;;;;;1796156;80;21101;-72
2021/03/14 05:21:15;;;;;;;19.07;10.90;;;5.60;91.70;;;;;;1796144;80;21130;-72
2021/03/14 05:23:45;;;;;;;21.77;11.78;;;5.60;91.00;;;;;;1796171;80;21157;-71
2021/03/14 05:26:14;;;;;;;21.95;12.45;;;5.60;89.50;;;;;;1796155;80;21128;-71
2021/03/14 05:28:44;;;;;;;21.85;11.90;;;5.60;90.00;;;;;;1796333;80;21634;-71
2021/03/14 05:31:29;;;;;;;22.58;12.58;;;5.50;90.00;;;;;;1796465;80;21290;-73
2021/03/14 05:34:01;;;;;;;25.87;12.70;;;5.50;90.10;;;;;;1790385;80;21112;-72
2021/03/14 05:36:31;;;;;;;18.80;10.38;;;5.50;89.00;;;;;;1796354;80;21805;-73
2021/03/14 05:39:02;;;;;;;17.50;9.35;;;5.40;90.80;;;;;;1796254;79;21140;-72
2021/03/14 05:41:32;;;;;;;17.60;9.93;;;5.40;91.80;;;;;;1796350;80;21132;-71
2021/03/14 05:44:02;;;;;;;17.05;10.95;;;5.40;92.00;;;;;;1796548;80;21149;-72
2021/03/14 05:46:31;;;;;;;21.45;11.28;;;5.40;93.00;;;;;;1796555;80;21112;-72
2021/03/14 05:49:00;;;;;;;20.62;10.78;;;5.40;92.10;;;;;;1796665;80;21167;-72
2021/03/14 05:51:36;;;;;;;17.35;10.50;;;5.50;92.60;;;;;;1796128;79;21136;-72
2021/03/14 05:54:03;;;;;;;19.82;10.75;;;5.50;93.20;;;;;;1796377;79;21128;-72
2021/03/14 05:56:32;;;;;;;20.80;10.03;;;5.60;92.70;;;;;;1796100;79;21156;-72
2021/03/14 05:59:01;;;;;;;19.92;10.58;;;5.60;93.20;;;;;;1796348;79;21125;-72
2021/03/14 06:01:30;;;;;;;23.95;13.45;;;5.60;93.00;;;;;;1796041;79;21164;-72
2021/03/14 06:03:59;;;;;;;21.90;11.95;;;5.70;91.70;;;;;;1796251;79;21120;-73
2021/03/14 06:06:27;;;;;;;23.62;13.45;;;5.90;91.10;;;;;;1796314;80;21347;-73
2021/03/14 06:08:56;;;;;;;22.20;12.47;;;6.10;90.40;;;;;;1796232;79;21562;-73
2021/03/14 06:11:24;;;;;;;25.95;13.55;;;6.20;89.90;;;;;;1796115;79;21105;-74
2021/03/14 06:13:51;;;;;;;25.60;13.95;;;6.30;88.70;;;;;;1796302;80;21147;-74
2021/03/14 06:16:19;;;;;;;24.30;14.23;;;6.30;88.80;;;;;;1796355;80;21563;-73
2021/03/14 06:18:52;;;;;;;28.50;14.43;;;6.30;88.50;;;;;;1796121;79;21197;-73
2021/03/14 06:21:28;;;;;;;24.75;14.25;;;6.30;88.70;;;;;;1796317;80;21121;-73
2021/03/14 06:24:01;;;;;;;25.63;14.13;;;6.30;89.80;;;;;;1796345;79;21117;-73
2021/03/14 06:26:35;;;;;;;22.80;12.68;;;6.30;89.10;;;;;;1796300;80;21139;-73
2021/03/14 06:29:21;;;;;;;25.00;12.53;;;6.50;88.30;;;;;;1796128;79;21566;-73
2021/03/14 06:31:54;;;;;;;25.37;12.88;;;6.60;87.20;;;;;;1796140;80;21137;-72
2021/03/14 06:34:38;;;;;;;24.90;14.23;;;6.60;87.30;;;;;;1796352;80;21105;-73
2021/03/14 06:37:15;;;;;;;24.82;13.75;;;6.50;88.40;;;;;;1796214;79;21566;-74
2021/03/14 06:39:50;;;;;;;23.70;13.45;;;6.50;88.90;;;;;;1796296;79;21136;-73
2021/03/14 06:42:33;;;;;;;22.77;13.57;;;6.60;89.00;;;;;;1796387;80;21121;-74
2021/03/14 06:45:14;;;;;;;24.27;13.58;;;6.70;88.20;;;;;;1796505;80;21120;-73
2021/03/14 06:47:48;;;;;;;29.72;14.65;;;6.80;86.60;;;;;;1796087;79;21135;-73
2021/03/14 06:50:41;;;;;;;22.77;13.48;;;6.90;85.80;;;;;;1796098;80;21116;-72
2021/03/14 06:53:19;;;;;;;27.48;14.20;;;6.90;84.50;;;;;;1796338;80;21298;-71
2021/03/14 06:55:50;;;;;;;22.82;13.55;;;6.90;85.00;;;;;;1796146;79;21590;-73
2021/03/14 06:58:36;;;;;;;26.47;13.50;;;6.90;84.60;;;;;;1769565;80;21760;-73
2021/03/14 07:01:20;;;;;;;26.07;14.23;;;7.00;84.30;;;;;;1795989;80;21168;-73
2021/03/14 07:03:54;;;;;;;21.97;12.90;;;7.10;83.40;;;;;;1796097;80;21117;-73
2021/03/14 07:06:29;;;;;;;26.50;14.25;;;7.10;83.80;;;;;;1796193;80;21636;-73
2021/03/14 07:09:09;;;;;;;26.40;15.18;;;7.20;83.80;;;;;;1796108;79;21125;-73
2021/03/14 07:11:48;;;;;;;28.17;14.90;;;7.20;84.00;;;;;;1796625;79;21622;-74
2021/03/14 07:14:19;;;;;;;26.40;14.28;;;7.20;83.60;;;;;;1796367;79;21290;-74
2021/03/14 07:16:54;;;;;;;26.20;15.00;;;7.30;84.40;;;;;;1796037;80;21105;-74
2021/03/14 07:19:29;;;;;;;24.72;13.13;;;7.40;83.70;;;;;;1796459;79;21551;-74
2021/03/14 07:22:10;;;;;;;26.37;13.68;;;7.50;83.80;;;;;;1796484;79;21167;-74
2021/03/14 07:24:43;;;;;;;24.82;13.03;;;7.70;83.10;;;;;;1795926;79;21603;-74
2021/03/14 07:27:15;;;;;;;23.87;13.55;;;7.80;81.60;;;;;;1796205;79;21535;-74
2021/03/14 07:29:43;;;;;;;26.05;13.88;;;7.90;80.50;;;;;;1795732;80;21168;-73
2021/03/14 07:32:11;;;;;;;25.23;13.40;;;8.00;79.60;;;;;;1796272;79;21124;-74
2021/03/14 07:34:39;;;;;;;22.48;13.48;;;8.20;80.40;;;;;;1796252;80;21132;-73
2021/03/14 07:37:07;;;;;;;25.32;13.40;;;8.40;79.20;;;;;;1796265;80;21148;-73
2021/03/14 07:39:35;;;;;;;23.95;13.05;;;8.50;78.90;;;;;;1796077;79;21152;-73
2021/03/14 07:42:04;;;;;;;25.35;13.85;;;8.60;77.60;;;;;;1796283;79;21156;-73
2021/03/14 07:44:32;;;;;;;23.57;13.55;;;8.60;78.20;;;;;;1796380;80;21567;-73
2021/03/14 07:47:01;;;;;;;25.27;14.60;;;8.60;77.60;;;;;;1796075;79;21124;-73
2021/03/14 07:49:30;;;;;;;22.52;13.18;;;8.60;77.90;;;;;;1796076;80;21159;-73
2021/03/14 07:52:06;;;;;;;22.85;12.90;;;8.60;77.60;;;;;;1796047;79;21144;-73
2021/03/14 07:54:39;;;;;;;22.58;13.08;;;8.60;77.80;;;;;;1796208;79;21583;-74
2021/03/14 07:57:10;;;;;;;25.10;13.85;;;8.70;77.40;;;;;;1796144;80;21152;-73
2021/03/14 07:59:40;;;;;;;27.73;13.85;;;8.70;77.20;;;;;;1796252;79;21583;-73
2021/03/14 08:02:24;;;;;;;24.10;13.18;;;8.70;77.00;;;;;;1796234;80;21176;-72
2021/03/14 08:04:56;;;;;;;24.90;14.07;;;8.80;77.00;;;;;;1796433;80;21709;-72
2021/03/14 08:07:39;;;;;;;26.80;14.63;;;8.80;77.20;;;;;;1796230;80;21132;-73
2021/03/14 08:10:17;;;;;;;23.62;14.15;;;8.90;76.50;;;;;;1796232;80;21129;-73
2021/03/14 08:12:45;;;;;;;30.15;15.18;;;9.00;76.80;;;;;;1793421;80;21123;-73
2021/03/14 08:15:26;;;;;;;24.02;13.28;;;9.10;76.60;;;;;;1796484;79;21286;-73
2021/03/14 08:17:58;;;;;;;25.65;14.07;;;9.10;77.10;;;;;;1796228;80;21116;-73
2021/03/14 08:20:45;;;;;;;27.85;14.50;;;9.20;75.70;;;;;;1796200;79;21085;-74
2021/03/14 08:23:19;;;;;;;25.52;13.88;;;9.30;75.40;;;;;;1796060;80;21139;-73
2021/03/14 08:25:50;;;;;;;24.15;14.05;;;9.40;75.10;;;;;;1796375;80;21140;-73
2021/03/14 08:28:34;;;;;;;29.63;15.03;;;9.40;75.10;;;;;;1796240;80;21124;-72
2021/03/14 08:31:18;;;;;;;25.62;14.13;;;9.40;76.20;;;;;;1795910;80;21168;-72
2021/03/14 08:33:46;;;;;;;24.75;14.03;;;9.30;75.60;;;;;;1769582;80;21129;-73
2021/03/14 08:36:32;;;;;;;26.93;13.20;;;9.40;76.20;;;;;;1794513;80;21143;-74
2021/03/14 08:39:03;;;;;;;23.30;13.45;;;9.50;74.60;;;;;;1796432;79;21689;-74
2021/03/14 08:41:51;;;;;;;24.70;13.30;;;9.80;72.80;;;;;;1796420;79;21575;-72
2021/03/14 08:44:42;;;;;;;25.37;15.00;;;10.10;73.10;;;;;;1796134;80;21563;-74
2021/03/14 08:47:18;;;;;;;26.77;15.03;;;10.50;72.20;;;;;;1795291;80;21591;-74
2021/03/14 08:49:52;;;;;;;21.45;13.00;;;11.20;70.10;;;;;;1795525;80;21129;-73
2021/03/14 08:52:22;;;;;;;21.93;14.15;;;11.30;69.10;;;;;;1796501;80;21270;-73
2021/03/14 08:54:54;;;;;;;23.18;12.63;;;12.00;67.50;;;;;;1794823;80;21594;-73
2021/03/14 08:57:25;;;;;;;17.12;11.63;;;12.40;65.40;;;;;;1796364;79;21657;-73
2021/03/14 08:59:57;;;;;;;20.65;12.78;;;12.30;65.30;;;;;;1796253;79;21535;-73
2021/03/14 09:02:32;;;;;;;19.15;12.10;;;12.40;65.10;;;;;;1796127;79;21147;-73
2021/03/14 09:05:16;;;;;;;;;;;12.40;65.40;;;;;;1797953;80;21274;-72
2021/03/14 09:08:00;;;;;;;18.20;10.68;;;12.40;65.00;;;;;;1795003;80;20413;-72
2021/03/14 09:10:36;;;;;;;16.75;9.88;;;12.30;64.40;;;;;;1750698;81;21124;-73
2021/03/14 09:13:11;;;;;;;17.98;11.08;;;12.40;64.80;;;;;;1750053;82;21310;-73
2021/03/14 09:15:50;;;;;;;17.48;10.03;;;12.40;64.80;;;;;;1748422;82;21289;-73
2021/03/14 09:18:25;;;;;;;18.27;10.55;;;12.30;64.40;;;;;;1750060;82;21168;-73
2021/03/14 09:21:01;;;;;;;18.10;10.63;;;12.30;65.20;;;;;;1750350;82;21310;-72
2021/03/14 09:23:42;;;;;;;;;;;12.20;65.30;;;;;;1751908;82;21175;-73
2021/03/14 09:26:12;;;;;;;17.87;10.15;;;12.10;65.90;;;;;;1750355;82;20126;-72
2021/03/14 09:28:45;;;;;;;18.95;9.83;;;12.10;66.30;;;;;;1750424;82;21605;-73
2021/03/14 09:31:15;;;;;;;17.17;10.53;;;12.20;66.60;;;;;;1750510;82;21175;-73
2021/03/14 09:33:45;;;;;;;18.87;10.03;;;12.10;66.40;;;;;;1749265;82;21273;-73
2021/03/14 09:36:18;;;;;;;15.98;10.00;;;12.10;66.90;;;;;;1750056;82;21965;-73
2021/03/14 09:38:59;;;;;;;15.72;9.58;;;12.10;66.80;;;;;;1749821;82;21760;-73
2021/03/14 09:41:47;;;;;;;13.95;9.40;;;12.00;67.00;;;;;;1749085;82;21309;-72
2021/03/14 09:44:19;;;;;;;20.15;10.68;;;12.00;67.30;;;;;;1747917;82;21562;-73
2021/03/14 09:47:02;;;;;;;21.60;11.65;;;11.90;67.70;;;;;;1749339;82;21163;-73
2021/03/14 09:49:43;;;;;;;21.07;12.33;;;11.90;68.40;;;;;;1749034;82;21297;-73
2021/03/14 09:52:13;;;;;;;19.87;11.00;;;11.80;67.80;;;;;;1747100;82;21151;-73
2021/03/14 09:54:41;;;;;;;18.95;10.10;;;11.70;67.80;;;;;;1750328;82;21312;-73
2021/03/14 09:57:09;;;;;;;17.07;10.13;;;11.70;68.50;;;;;;1750594;82;21144;-73
2021/03/14 09:59:39;;;;;;;18.80;10.00;;;11.60;69.20;;;;;;1749434;82;21748;-73
2021/03/14 10:02:12;;;;;;;18.23;9.90;;;11.50;70.50;;;;;;1748796;82;21740;-74
2021/03/14 10:04:59;;;;;;;19.65;11.10;;;11.50;71.30;;;;;;1726496;82;21594;-73
2021/03/14 10:07:28;;;;;;;15.72;9.58;;;11.40;71.60;;;;;;1750490;81;21191;-72
2021/03/14 10:09:59;;;;;;;15.68;10.18;;;11.40;72.60;;;;;;1742417;82;21570;-73
2021/03/14 10:12:34;;;;;;;17.82;10.63;;;11.40;73.20;;;;;;1737256;82;21163;-73
2021/03/14 10:15:05;;;;;;;18.92;10.70;;;11.40;73.50;;;;;;1738825;82;21148;-73
2021/03/14 10:17:34;;;;;;;18.15;9.80;;;11.40;73.20;;;;;;1713562;82;21160;-72
2021/03/14 10:20:05;;;;;;;18.05;10.35;;;11.40;73.40;;;;;;1738871;82;21128;-74
2021/03/14 10:22:35;;;;;;;21.73;11.38;;;11.40;75.90;;;;;;1713625;82;21151;-74
2021/03/14 10:25:33;;;;;;;21.50;11.88;;;11.30;78.80;;;;;;1737655;82;21744;-73
2021/03/14 10:28:17;;;;;;;19.25;11.93;;;11.20;80.10;;;;;;1738495;82;21148;-73
2021/03/14 10:30:55;;;;;;;22.27;11.33;;;11.20;86.70;;;;;;1714864;82;21188;-73
2021/03/14 10:33:33;;;;;;;18.57;10.90;;;11.10;89.30;;;;;;1737826;82;21164;-73
2021/03/14 10:36:11;;;;;;;21.75;13.60;;;11.00;90.50;;;;;;1738884;82;21151;-73
2021/03/14 10:38:44;;;;;;;27.07;13.80;;;11.00;92.30;;;;;;1738891;82;21159;-72
2021/03/14 10:41:17;;;;;;;23.57;13.95;;;10.90;91.40;;;;;;1737922;82;21171;-73
2021/03/14 10:44:01;;;;;;;22.90;13.68;;;11.00;90.20;;;;;;1738491;82;21175;-72
2021/03/14 10:46:49;;;;;;;25.95;14.63;;;11.00;89.60;;;;;;1738398;82;21642;-71
2021/03/14 10:49:30;;;;;;;;;;;11.00;93.30;;;;;;1741386;82;21310;-72
2021/03/14 10:52:01;;;;;;;24.05;14.95;;;10.90;95.40;;;;;;1738626;82;20147;-73
2021/03/14 10:54:35;;;;;;;23.07;12.98;;;10.90;96.50;;;;;;1713533;82;21163;-72
2021/03/14 10:57:14;;;;;;;23.07;14.10;;;10.80;99.20;;;;;;1738464;82;21322;-74
2021/03/14 10:59:43;;;;;;;22.32;13.32;;;10.80;97.70;;;;;;1739144;82;21167;-74
2021/03/14 11:02:25;;;;;;;24.72;14.28;;;10.90;98.60;;;;;;1735336;82;21312;-73
2021/03/14 11:05:00;;;;;;;25.02;14.63;;;11.00;95.10;;;;;;1738998;82;21168;-72
2021/03/14 11:07:37;;;;;;;22.10;13.00;;;11.10;95.10;;;;;;1738359;82;21290;-74
2021/03/14 11:10:15;;;;;;;24.12;13.80;;;11.20;92.80;;;;;;1737833;82;21172;-73
2021/03/14 11:12:47;;;;;;;24.87;14.35;;;11.40;92.50;;;;;;1738597;82;21606;-72
2021/03/14 11:15:30;;;;;;;23.45;13.60;;;11.50;92.90;;;;;;1738510;82;21180;-72
2021/03/14 11:18:24;;;;;;;23.22;13.75;;;11.60;91.70;;;;;;1738456;82;21164;-73
2021/03/14 11:21:06;;;;;;;23.22;13.65;;;11.70;91.70;;;;;;1738493;82;21191;-73
2021/03/14 11:23:34;;;;;;;26.17;14.15;;;11.80;91.20;;;;;;1738877;82;21293;-73
2021/03/14 11:26:04;;;;;;;25.08;13.88;;;11.90;90.00;;;;;;1737587;82;21172;-73
2021/03/14 11:28:47;;;;;;;28.40;15.68;;;11.90;89.50;;;;;;1738855;82;21164;-74
2021/03/14 11:31:17;;;;;;;30.08;17.23;;;11.90;89.50;;;;;;1738055;82;21156;-73
2021/03/14 11:33:46;;;;;;;34.40;18.10;;;11.90;90.00;;;;;;1739000;82;21140;-74
2021/03/14 11:36:15;;;;;;;27.80;16.55;;;11.80;90.90;;;;;;1738293;82;21627;-72
2021/03/14 11:38:45;;;;;;;29.57;15.85;;;11.80;91.80;;;;;;1737031;82;21310;-72
2021/03/14 11:41:26;;;;;;;24.80;14.35;;;11.70;93.80;;;;;;1736842;82;21152;-73
2021/03/14 11:44:00;;;;;;;24.75;15.08;;;11.60;95.40;;;;;;1732722;82;21203;-72
2021/03/14 11:46:30;;;;;;;26.97;15.68;;;11.60;97.20;;;;;;1739152;82;21183;-74
2021/03/14 11:49:00;;;;;;;25.72;14.13;;;11.50;97.00;;;;;;1737848;82;21140;-71
2021/03/14 11:51:28;;;;;;;25.48;14.78;;;11.60;95.80;;;;;;1738988;82;21167;-72
2021/03/14 11:53:59;;;;;;;26.73;15.60;;;11.50;97.60;;;;;;1738423;82;21118;-72
2021/03/14 11:56:29;;;;;;;23.95;14.07;;;11.40;99.00;;;;;;1736062;82;21192;-73
2021/03/14 11:58:59;;;;;;;22.40;14.43;;;11.40;99.90;;;;;;1738789;82;21619;-74
2021/03/14 12:01:29;;;;;;;28.85;15.05;;;11.30;99.90;;;;;;1738384;82;21187;-73
2021/03/14 12:03:59;;;;;;;24.45;14.70;;;11.30;99.90;;;;;;1738970;82;21333;-72
2021/03/14 12:06:28;;;;;;;37.17;21.60;;;11.30;98.90;;;;;;1739013;82;21136;-72
2021/03/14 12:08:59;;;;;;;37.75;21.80;;;11.30;99.70;;;;;;1737896;82;21140;-70
2021/03/14 12:11:27;;;;;;;22.37;14.90;;;11.30;99.90;;;;;;1713920;82;21132;-71
2021/03/14 12:13:57;;;;;;;25.45;15.30;;;11.20;99.90;;;;;;1739279;82;21175;-72
2021/03/14 12:16:39;;;;;;;23.73;14.87;;;11.20;99.90;;;;;;1699448;82;21188;-72
2021/03/14 12:19:07;;;;;;;24.75;15.70;;;11.20;99.90;;;;;;1738886;82;21581;-72
2021/03/14 12:21:35;;;;;;;23.67;14.05;;;11.20;99.90;;;;;;1739000;82;21166;-72
2021/03/14 12:24:04;;;;;;;24.67;14.58;;;11.20;99.90;;;;;;1739002;82;21574;-71
2021/03/14 12:26:34;;;;;;;22.58;13.95;;;11.30;99.90;;;;;;1738727;82;21124;-73
2021/03/14 12:29:06;;;;;;;24.07;15.20;;;11.30;99.90;;;;;;1738425;82;21531;-72
2021/03/14 12:31:35;;;;;;;22.02;14.23;;;11.40;99.90;;;;;;1737979;82;21629;-72
2021/03/14 12:34:04;;;;;;;24.95;13.80;;;11.40;99.90;;;;;;1738784;82;21162;-72
2021/03/14 12:36:31;;;;;;;24.12;13.88;;;11.60;99.90;;;;;;1738812;82;21634;-72
2021/03/14 12:39:01;;;;;;;23.67;14.43;;;11.80;99.50;;;;;;1737147;82;21294;-72
2021/03/14 12:41:29;;;;;;;23.52;13.72;;;11.90;99.60;;;;;;1738853;82;21183;-71
2021/03/14 12:43:58;;;;;;;21.07;12.15;;;11.90;97.00;;;;;;1738715;82;21167;-71
2021/03/14 12:46:28;;;;;;;20.57;12.35;;;12.00;95.40;;;;;;1738942;82;21618;-72
2021/03/14 12:48:56;;;;;;;13.72;8.40;;;12.20;95.50;;;;;;1738985;82;21163;-72
2021/03/14 12:51:24;;;;;;;15.90;9.20;;;12.30;90.30;;;;;;1738782;82;21187;-71
2021/03/14 12:53:51;;;;;;;20.75;12.15;;;12.40;90.80;;;;;;1738774;82;21294;-72
2021/03/14 12:56:20;;;;;;;16.30;10.58;;;12.50;91.70;;;;;;1738700;82;21301;-72
2021/03/14 12:58:50;;;;;;;20.72;11.95;;;12.50;90.10;;;;;;1738315;82;21172;-72
2021/03/14 13:01:19;;;;;;;14.05;9.08;;;12.50;90.20;;;;;;1738980;82;21144;-72